Time;durP1;ratioP1;P1;durP2;ratioP2;P2;SDS_P1;SDS_P2;PMS_P1;PMS_P2;Temp;Humidity;BMP_temperature;BMP_pressure;BME280_temperature;BME280_humidity;BME280_pressure;Samples;Min_cycle;Max_cycle;Signal;HPM_P1;HPM_P2
2023/02/13 00:01:39;;;;;;;43.7;30.3;;;;;;;2;82.5;100770;;;;
2023/02/13 00:11:40;;;;;;;43.7;30.3;;;;;;;2.1;82.6;100780;;;;
2023/02/13 00:22:39;;;;;;;40.8;26.2;;;;;;;2;82.8;100770;;;;
2023/02/13 00:32:40;;;;;;;40.8;26.2;;;;;;;2;83.3;100760;;;;
2023/02/13 00:43:40;;;;;;;40.8;26.2;;;;;;;2.2;83.3;100760;;;;
2023/02/13 00:54:39;;;;;;;44.9;29.6;;;;;;;2.3;83.2;100760;;;;
2023/02/13 01:05:39;;;;;;;44.9;29.6;;;;;;;2.3;83;100750;;;;
2023/02/13 01:15:40;;;;;;;44.9;29.6;;;;;;;2.2;83.1;100730;;;;
2023/02/13 01:25:40;;;;;;;46.8;30.6;;;;;;;2.3;83.1;100730;;;;
2023/02/13 01:36:39;;;;;;;46.8;30.6;;;;;;;2.3;83.2;100720;;;;
2023/02/13 01:46:41;;;;;;;46.8;30.6;;;;;;;2.4;83.3;100700;;;;
2023/02/13 01:56:39;;;;;;;45.4;28.4;;;;;;;2.5;83.3;100700;;;;
2023/02/13 02:07:39;;;;;;;45.4;28.4;;;;;;;2.4;83.2;100680;;;;
2023/02/13 02:17:39;;;;;;;45.4;28.4;;;;;;;2.5;83.3;100670;;;;
2023/02/13 02:28:39;;;;;;;43.9;27.1;;;;;;;2.5;83.5;100660;;;;
2023/02/13 02:39:39;;;;;;;43.9;27.1;;;;;;;2.6;83.9;100670;;;;
2023/02/13 02:50:11;;;;;;;50.5;33;;;;;;;2.5;84;100680;;;;
2023/02/13 03:22:43;;;;;;;65.9;38.8;;;;;;;2.6;85.1;100680;;;;
2023/02/13 03:32:39;;;;;;;65.9;38.8;;;;;;;2.5;85;100690;;;;
2023/02/13 03:43:39;;;;;;;65.9;38.8;;;;;;;2.5;85.3;100700;;;;
2023/02/13 03:53:39;;;;;;;69.3;45;;;;;;;2.6;85.3;100700;;;;
2023/02/13 04:03:39;;;;;;;69.3;45;;;;;;;2.6;85.6;100700;;;;
2023/02/13 04:13:39;;;;;;;69.3;45;;;;;;;2.6;86.5;100710;;;;
2023/02/13 04:24:39;;;;;;;80.9;47.3;;;;;;;2.6;87.7;100700;;;;
2023/02/13 04:35:39;;;;;;;80.9;47.3;;;;;;;2.6;88.1;100700;;;;
2023/02/13 04:46:39;;;;;;;80.9;47.3;;;;;;;2.7;88.4;100700;;;;
2023/02/13 04:56:39;;;;;;;70.8;43.4;;;;;;;2.7;89;100700;;;;
2023/02/13 05:06:39;;;;;;;70.8;43.4;;;;;;;2.8;89.3;100690;;;;
2023/02/13 05:17:40;;;;;;;70.8;43.4;;;;;;;2.8;89.5;100700;;;;
2023/02/13 05:27:39;;;;;;;63.5;39;;;;;;;2.9;90;100700;;;;
2023/02/13 05:38:40;;;;;;;63.5;39;;;;;;;3.1;90.3;100700;;;;
2023/02/13 05:49:39;;;;;;;45.7;29.4;;;;;;;3.1;90.6;100700;;;;
2023/02/13 06:00:39;;;;;;;45.7;29.4;;;;;;;3.3;90.7;100710;;;;
2023/02/13 06:10:39;;;;;;;45.7;29.4;;;;;;;3.3;90.8;100710;;;;
2023/02/13 06:20:39;;;;;;;42.4;28.5;;;;;;;3.5;90.8;100700;;;;
2023/02/13 06:31:39;;;;;;;42.4;28.5;;;;;;;3.6;90.8;100700;;;;
2023/02/13 06:41:39;;;;;;;42.4;28.5;;;;;;;3.8;90.9;100710;;;;
2023/02/13 06:52:39;;;;;;;27.5;19.4;;;;;;;4;90.9;100720;;;;
2023/02/13 07:02:39;;;;;;;27.5;19.4;;;;;;;4.2;90.6;100720;;;;
2023/02/13 07:12:39;;;;;;;27.5;19.4;;;;;;;4.3;90.3;100730;;;;
2023/02/13 07:23:39;;;;;;;29.3;22.7;;;;;;;4.3;89.5;100730;;;;
2023/02/13 07:33:39;;;;;;;29.3;22.7;;;;;;;4.4;89.4;100730;;;;
2023/02/13 07:43:39;;;;;;;29.3;22.7;;;;;;;4.6;89.1;100730;;;;
2023/02/13 07:54:45;;;;;;;40.7;29.4;;;;;;;4.8;88.7;100730;;;;
2023/02/13 08:05:39;;;;;;;40.7;29.4;;;;;;;5;88.2;100720;;;;
2023/02/13 08:16:39;;;;;;;40.7;29.4;;;;;;;5.1;88.1;100720;;;;
2023/02/13 08:26:39;;;;;;;35.4;24.4;;;;;;;5.4;88;100710;;;;
2023/02/13 08:37:39;;;;;;;35.4;24.4;;;;;;;5.8;86.9;100710;;;;
2023/02/13 08:47:39;;;;;;;35.4;24.4;;;;;;;6;86;100710;;;;
2023/02/13 08:57:39;;;;;;;34.6;25;;;;;;;6.2;85;100700;;;;
2023/02/13 09:07:39;;;;;;;34.6;25;;;;;;;6.3;83.4;100700;;;;
2023/02/13 09:18:39;;;;;;;30.5;21.5;;;;;;;6.4;82.7;100700;;;;
2023/02/13 09:29:39;;;;;;;30.5;21.5;;;;;;;6.6;82;100700;;;;
2023/02/13 09:39:39;;;;;;;30.5;21.5;;;;;;;6.6;81.4;100710;;;;
2023/02/13 09:49:39;;;;;;;29.8;23.6;;;;;;;6.5;80.5;100700;;;;
2023/02/13 09:59:39;;;;;;;29.8;23.6;;;;;;;6.8;81.2;100700;;;;
2023/02/13 10:10:39;;;;;;;29.8;23.6;;;;;;;7;80.2;100700;;;;
2023/02/13 10:20:39;;;;;;;29.5;21.8;;;;;;;6.9;79.8;100680;;;;
2023/02/13 10:31:39;;;;;;;29.5;21.8;;;;;;;7.1;80.1;100660;;;;
2023/02/13 10:41:40;;;;;;;29.5;21.8;;;;;;;7.2;79.6;100650;;;;
2023/02/13 10:52:39;;;;;;;25.7;18.9;;;;;;;7.4;79.1;100640;;;;
2023/02/13 11:03:39;;;;;;;25.7;18.9;;;;;;;7;79.7;100630;;;;
2023/02/13 11:14:39;;;;;;;25.7;18.9;;;;;;;7.1;78.4;100620;;;;
2023/02/13 11:25:39;;;;;;;16.2;10.3;;;;;;;7.3;77.9;100610;;;;
2023/02/13 11:35:39;;;;;;;16.2;10.3;;;;;;;7.8;78.5;100600;;;;
2023/02/13 11:45:39;;;;;;;16.2;10.3;;;;;;;7.7;77.2;100610;;;;
2023/02/13 11:55:39;;;;;;;13.9;10;;;;;;;7.6;77.1;100600;;;;
2023/02/13 12:05:39;;;;;;;13.9;10;;;;;;;7.3;77.8;100600;;;;
2023/02/13 12:15:39;;;;;;;13.9;10;;;;;;;7.1;79.9;100600;;;;
2023/02/13 12:26:39;;;;;;;12.4;8.7;;;;;;;7;80;100580;;;;
2023/02/13 12:36:39;;;;;;;12.4;8.7;;;;;;;7;80.1;100580;;;;
2023/02/13 12:46:39;;;;;;;12.4;8.7;;;;;;;7.4;78.9;100570;;;;
2023/02/13 12:56:39;;;;;;;12.2;8.6;;;;;;;7.5;78.7;100550;;;;
2023/02/13 13:06:39;;;;;;;12.2;8.6;;;;;;;7.6;78.1;100560;;;;
2023/02/13 13:17:39;;;;;;;12.6;8.7;;;;;;;7.7;77.8;100560;;;;
2023/02/13 13:27:39;;;;;;;12.6;8.7;;;;;;;7.3;79.6;100560;;;;
2023/02/13 13:37:39;;;;;;;12.6;8.7;;;;;;;6.9;82.3;100570;;;;
2023/02/13 13:48:39;;;;;;;14.8;9.1;;;;;;;6.8;84.2;100570;;;;
2023/02/13 13:58:39;;;;;;;14.8;9.1;;;;;;;6.8;84.6;100560;;;;
2023/02/13 14:09:39;;;;;;;14.8;9.1;;;;;;;6.6;85.3;100540;;;;
2023/02/13 14:19:39;;;;;;;16.4;12.4;;;;;;;6.6;85.6;100550;;;;
2023/02/13 14:29:39;;;;;;;16.4;12.4;;;;;;;6.5;86;100550;;;;
2023/02/13 14:40:39;;;;;;;16.4;12.4;;;;;;;6.3;86.7;100530;;;;
2023/02/13 14:50:39;;;;;;;18.4;12.6;;;;;;;6.1;87.4;100520;;;;
2023/02/13 15:00:39;;;;;;;18.4;12.6;;;;;;;6.2;87.6;100500;;;;
2023/02/13 15:10:39;;;;;;;18.4;12.6;;;;;;;6.1;87.6;100490;;;;
2023/02/13 15:20:39;;;;;;;16.2;11.4;;;;;;;6;87.3;100490;;;;
2023/02/13 15:30:39;;;;;;;16.2;11.4;;;;;;;6;87.3;100480;;;;
2023/02/13 15:41:39;;;;;;;16.2;11.4;;;;;;;5.9;87.7;100490;;;;
2023/02/13 15:51:39;;;;;;;15;11.2;;;;;;;5.7;87.4;100500;;;;
2023/02/13 16:02:39;;;;;;;15;11.2;;;;;;;5.5;88;100500;;;;
2023/02/13 16:13:39;;;;;;;15;11.2;;;;;;;5.4;87.7;100500;;;;
2023/02/13 16:23:39;;;;;;;17;11.3;;;;;;;5.3;88;100520;;;;
2023/02/13 16:33:40;;;;;;;17;11.3;;;;;;;5.2;88;100530;;;;
2023/02/13 16:44:39;;;;;;;17;11.3;;;;;;;5.2;87.5;100540;;;;
2023/02/13 16:54:39;;;;;;;16.7;11.5;;;;;;;5.1;86.1;100550;;;;
2023/02/13 17:04:40;;;;;;;16.7;11.5;;;;;;;5.1;87.2;100530;;;;
2023/02/13 17:14:39;;;;;;;16.7;11.5;;;;;;;5;87.9;100500;;;;
2023/02/13 17:24:39;;;;;;;19.2;13.1;;;;;;;4.9;87.8;100510;;;;
2023/02/13 17:35:39;;;;;;;19.2;13.1;;;;;;;4.8;87;100490;;;;
2023/02/13 17:45:39;;;;;;;19.2;13.1;;;;;;;4.5;86.8;100510;;;;
2023/02/13 17:55:39;;;;;;;17.4;10.2;;;;;;;4.4;87;100510;;;;
2023/02/13 18:06:39;;;;;;;17.4;10.2;;;;;;;4.3;87.3;100520;;;;
2023/02/13 18:16:39;;;;;;;17.4;10.2;;;;;;;4.3;87.2;100540;;;;
2023/02/13 18:26:39;;;;;;;12.9;6.9;;;;;;;4.3;87.3;100510;;;;
2023/02/13 18:37:39;;;;;;;12.9;6.9;;;;;;;4.3;87.2;100550;;;;
2023/02/13 18:48:39;;;;;;;13.6;8.6;;;;;;;4.2;87.1;100550;;;;
2023/02/13 18:58:39;;;;;;;13.6;8.6;;;;;;;4.3;86.8;100560;;;;
2023/02/13 19:09:39;;;;;;;13.6;8.6;;;;;;;4.4;86;100580;;;;
2023/02/13 19:19:39;;;;;;;17.6;11.5;;;;;;;4.4;84.4;100600;;;;
2023/02/13 19:29:39;;;;;;;17.6;11.5;;;;;;;4.4;83.8;100600;;;;
2023/02/13 19:40:39;;;;;;;17.6;11.5;;;;;;;4.5;83.9;100600;;;;
2023/02/13 19:51:40;;;;;;;21.9;13.9;;;;;;;4.5;84.2;100590;;;;
2023/02/13 20:02:39;;;;;;;21.9;13.9;;;;;;;4.5;84.3;100600;;;;
2023/02/13 20:12:39;;;;;;;21.9;13.9;;;;;;;4.5;84.3;100590;;;;
2023/02/13 20:22:39;;;;;;;19.3;13.8;;;;;;;4.5;84.4;100620;;;;
2023/02/13 20:33:39;;;;;;;19.3;13.8;;;;;;;4.5;84.5;100620;;;;
2023/02/13 20:44:39;;;;;;;19.3;13.8;;;;;;;4.5;84.9;100620;;;;
2023/02/13 20:55:39;;;;;;;20.7;14.7;;;;;;;4.5;85;100630;;;;
2023/02/13 21:05:39;;;;;;;20.7;14.7;;;;;;;4.5;85.5;100610;;;;
2023/02/13 21:15:39;;;;;;;20.7;14.7;;;;;;;4.5;85.9;100600;;;;
2023/02/13 21:26:39;;;;;;;28.4;17.3;;;;;;;4.5;86;100600;;;;
2023/02/13 21:36:39;;;;;;;28.4;17.3;;;;;;;4.4;86.4;100580;;;;
2023/02/13 21:46:39;;;;;;;26.7;19.3;;;;;;;4.4;86.6;100580;;;;
2023/02/13 21:57:39;;;;;;;26.7;19.3;;;;;;;4.4;86.6;100590;;;;
2023/02/13 22:08:39;;;;;;;26.7;19.3;;;;;;;4.4;86.9;100600;;;;
2023/02/13 22:18:39;;;;;;;29.8;18.4;;;;;;;4.4;87;100600;;;;
2023/02/13 22:29:39;;;;;;;29.8;18.4;;;;;;;4.4;87;100590;;;;
2023/02/13 22:40:39;;;;;;;29.8;18.4;;;;;;;4.4;87.2;100580;;;;
2023/02/13 22:50:39;;;;;;;23.3;16.4;;;;;;;4.5;87.1;100570;;;;
2023/02/13 23:01:39;;;;;;;23.3;16.4;;;;;;;4.5;87.2;100580;;;;
2023/02/13 23:12:39;;;;;;;23.3;16.4;;;;;;;4.5;87.4;100590;;;;
2023/02/13 23:22:39;;;;;;;24.3;15.5;;;;;;;4.4;87.8;100580;;;;
2023/02/13 23:33:39;;;;;;;24.3;15.5;;;;;;;4.4;88;100580;;;;
2023/02/13 23:43:39;;;;;;;24.3;15.5;;;;;;;4.3;88.5;100570;;;;
2023/02/13 23:53:39;;;;;;;25.5;16.6;;;;;;;4.2;88.8;100560;;;;
